Time;durP1;ratioP1;P1;durP2;ratioP2;P2;SDS_P1;SDS_P2;PMS_P1;PMS_P2;Temp;Humidity;BMP_temperature;BMP_pressure;BME280_temperature;BME280_humidity;BME280_pressure;Samples;Min_cycle;Max_cycle;Signal;HPM_P1;HPM_P2
2022/07/22 00:02:22;;;;;;;3.20;3.10;;;;;;;26.63;61.62;99397.63;5118597;27;20195;-66
2022/07/22 00:04:49;;;;;;;6.60;3.83;;;;;;;26.61;62.38;99401.38;5111873;27;20226;-66
2022/07/22 00:07:16;;;;;;;4.13;3.77;;;;;;;26.46;62.51;99376.56;5111511;28;20212;-66
2022/07/22 00:09:45;;;;;;;4.00;3.37;;;;;;;26.48;62.41;99406.16;5131176;27;20194;-66
2022/07/22 00:12:12;;;;;;;3.47;3.30;;;;;;;26.38;62.41;99402.75;5131430;27;20218;-66
2022/07/22 00:14:38;;;;;;;3.90;3.70;;;;;;;26.16;62.62;99384.72;5131283;27;20202;-66
2022/07/22 00:17:05;;;;;;;4.07;3.77;;;;;;;26.20;62.73;99407.97;5131518;28;20194;-66
2022/07/22 00:19:32;;;;;;;5.10;4.50;;;;;;;26.11;63.20;99399.09;5131095;28;20194;-66
2022/07/22 00:21:59;;;;;;;4.40;3.90;;;;;;;26.04;63.61;99402.47;5131472;28;20207;-66
2022/07/22 00:24:26;;;;;;;4.20;3.90;;;;;;;26.01;64.00;99403.56;5131455;28;20692;-66
2022/07/22 00:26:54;;;;;;;3.90;3.60;;;;;;;25.93;64.06;99408.72;5131443;27;20197;-66
2022/07/22 00:29:21;;;;;;;4.70;4.40;;;;;;;25.91;64.64;99402.78;5113694;28;20239;-66
2022/07/22 00:31:48;;;;;;;3.97;3.77;;;;;;;25.89;64.22;99406.50;5110846;28;20222;-66
2022/07/22 00:34:15;;;;;;;4.07;3.77;;;;;;;25.81;64.96;99412.50;5119402;27;20198;-66
2022/07/22 00:36:42;;;;;;;4.23;3.93;;;;;;;25.73;65.35;99415.00;5114987;28;20207;-66
2022/07/22 00:39:08;;;;;;;4.07;3.87;;;;;;;25.67;65.50;99412.09;5119733;27;20205;-66
2022/07/22 00:41:35;;;;;;;10.83;3.93;;;;;;;25.57;65.92;99409.50;5122404;27;20665;-66
2022/07/22 00:44:06;;;;;;;4.20;4.00;;;;;;;25.50;66.80;99409.22;5115004;28;20194;-66
2022/07/22 00:46:34;;;;;;;4.57;4.30;;;;;;;25.45;66.80;99416.69;5114857;28;20209;-66
2022/07/22 00:49:02;;;;;;;4.13;3.87;;;;;;;25.39;67.17;99405.91;5128220;27;20195;-66
2022/07/22 00:51:30;;;;;;;4.50;4.20;;;;;;;25.35;67.14;99410.59;5116002;27;20309;-66
2022/07/22 00:53:58;;;;;;;4.73;4.43;;;;;;;25.28;67.37;99398.16;5114064;28;20191;-65
2022/07/22 00:56:25;;;;;;;4.57;4.33;;;;;;;25.25;67.28;99395.81;5113728;28;20218;-66
2022/07/22 00:58:53;;;;;;;4.60;3.70;;;;;;;25.22;67.59;99396.09;5128105;27;20201;-66
2022/07/22 01:01:21;;;;;;;4.30;4.10;;;;;;;25.29;67.92;99420.81;5134907;27;20694;-66
2022/07/22 01:03:48;;;;;;;4.50;4.20;;;;;;;25.20;68.45;99398.06;5135064;27;20208;-66
2022/07/22 01:06:15;;;;;;;8.23;3.97;;;;;;;25.11;68.26;99393.59;5134190;27;20202;-66
2022/07/22 01:08:43;;;;;;;4.03;3.83;;;;;;;25.18;68.74;99399.97;5133326;27;21198;-66
2022/07/22 01:11:11;;;;;;;3.97;3.77;;;;;;;25.22;69.20;99411.84;5131864;27;20190;-66
2022/07/22 01:13:38;;;;;;;4.60;4.40;;;;;;;25.21;69.44;99412.81;5133119;27;20559;-66
2022/07/22 01:16:06;;;;;;;5.47;5.10;;;;;;;25.16;69.82;99409.78;5129749;27;20194;-66
2022/07/22 01:18:34;;;;;;;4.23;4.03;;;;;;;25.12;69.95;99419.72;5123353;27;20212;-66
2022/07/22 01:21:03;;;;;;;4.13;3.93;;;;;;;25.08;70.24;99421.78;5132946;27;20198;-66
2022/07/22 01:23:31;;;;;;;4.40;4.20;;;;;;;25.06;70.03;99415.88;5134785;27;20197;-66
2022/07/22 01:25:58;;;;;;;4.97;4.57;;;;;;;25.04;70.18;99417.78;5134747;27;20205;-66
2022/07/22 01:28:25;;;;;;;4.30;4.10;;;;;;;25.01;70.19;99418.03;5134471;27;20194;-65
2022/07/22 01:30:52;;;;;;;5.10;4.73;;;;;;;24.96;70.30;99409.78;5133532;27;20693;-66
2022/07/22 01:33:20;;;;;;;4.57;4.27;;;;;;;24.93;70.65;99417.91;5115892;27;20222;-66
2022/07/22 01:35:47;;;;;;;5.73;4.43;;;;;;;24.90;71.18;99409.50;5115163;27;20199;-66
2022/07/22 01:38:16;;;;;;;5.20;4.50;;;;;;;24.86;71.36;99414.19;5117613;27;20202;-66
2022/07/22 01:40:44;;;;;;;5.30;4.80;;;;;;;24.81;71.89;99408.50;5117350;27;20202;-66
2022/07/22 01:43:13;;;;;;;5.47;4.90;;;;;;;24.81;72.00;99411.13;5113749;28;20186;-66
2022/07/22 01:45:40;;;;;;;5.47;5.17;;;;;;;24.75;72.21;99401.16;5113446;28;20289;-66
2022/07/22 01:48:07;;;;;;;5.33;4.93;;;;;;;24.73;72.69;99397.00;5113913;28;20190;-66
2022/07/22 01:50:34;;;;;;;5.20;4.73;;;;;;;24.69;72.69;99399.06;5125401;27;20662;-66
2022/07/22 01:53:00;;;;;;;7.27;5.07;;;;;;;24.68;72.55;99404.47;5113648;27;20690;-66
2022/07/22 01:55:29;;;;;;;5.00;4.70;;;;;;;24.61;72.39;99401.56;5113669;28;20199;-66
2022/07/22 01:57:56;;;;;;;5.30;4.90;;;;;;;24.58;72.26;99401.81;5113404;28;20202;-66
2022/07/22 02:00:22;;;;;;;5.00;4.60;;;;;;;24.55;72.32;99400.31;5114176;27;20201;-66
2022/07/22 02:02:49;;;;;;;4.90;4.60;;;;;;;24.52;72.26;99399.75;5113159;28;20195;-66
2022/07/22 02:05:16;;;;;;;4.70;4.40;;;;;;;24.50;72.51;99396.41;5113568;27;20206;-66
2022/07/22 02:07:43;;;;;;;5.67;5.17;;;;;;;24.46;72.47;99392.38;5113125;28;20204;-65
2022/07/22 02:10:10;;;;;;;5.87;5.53;;;;;;;24.43;72.75;99396.13;5114736;27;20218;-66
2022/07/22 02:12:40;;;;;;;5.63;5.13;;;;;;;24.34;72.87;99385.59;5114884;27;20226;-65
2022/07/22 02:15:08;;;;;;;4.80;4.40;;;;;;;24.26;73.38;99378.44;5112872;27;20195;-65
2022/07/22 02:17:35;;;;;;;5.33;5.03;;;;;;;24.26;73.67;99377.59;5113172;28;20186;-66
2022/07/22 02:20:02;;;;;;;4.80;4.60;;;;;;;24.30;74.45;99395.53;5113813;27;20198;-66
2022/07/22 02:22:29;;;;;;;4.63;4.43;;;;;;;24.30;74.97;99399.94;5113047;28;20205;-66
2022/07/22 02:24:56;;;;;;;5.97;5.37;;;;;;;24.25;74.72;99396.88;5112819;28;20202;-65
2022/07/22 02:27:23;;;;;;;5.27;4.87;;;;;;;24.26;74.94;99395.94;5113936;27;20199;-65
2022/07/22 02:29:51;;;;;;;5.03;4.83;;;;;;;24.24;74.77;99395.22;5133881;27;20198;-66
2022/07/22 02:32:18;;;;;;;7.43;4.23;;;;;;;24.24;75.38;99392.59;5123677;27;20219;-66
2022/07/22 02:34:44;;;;;;;5.47;5.07;;;;;;;24.20;75.63;99391.22;5117948;27;20221;-66
2022/07/22 02:37:11;;;;;;;5.83;5.43;;;;;;;24.15;75.95;99393.41;5120614;27;20212;-66
2022/07/22 02:39:38;;;;;;;5.20;4.90;;;;;;;24.11;76.46;99389.34;5132861;27;20574;-65
2022/07/22 02:42:05;;;;;;;5.47;5.17;;;;;;;24.10;77.54;99387.72;5133158;27;20217;-66
2022/07/22 02:44:32;;;;;;;5.60;4.77;;;;;;;24.08;78.00;99389.59;5132056;27;20194;-65
2022/07/22 02:47:00;;;;;;;7.03;4.57;;;;;;;24.05;78.22;99385.47;5133195;27;20205;-65
2022/07/22 02:49:27;;;;;;;5.60;5.10;;;;;;;24.01;78.48;99384.06;5117081;27;20198;-65
2022/07/22 02:51:54;;;;;;;5.33;5.03;;;;;;;23.99;78.51;99386.84;5112277;28;20222;-65
2022/07/22 02:54:21;;;;;;;6.30;5.90;;;;;;;23.95;78.73;99380.19;5112239;28;20582;-65
2022/07/22 02:56:48;;;;;;;5.83;5.30;;;;;;;23.96;78.40;99384.47;5129414;27;20217;-66
2022/07/22 02:59:15;;;;;;;6.77;5.27;;;;;;;23.94;78.14;99383.75;5131977;27;20190;-65
2022/07/22 03:01:41;;;;;;;5.40;5.10;;;;;;;23.91;78.51;99378.78;5131128;27;20577;-65
2022/07/22 03:04:10;;;;;;;5.13;4.83;;;;;;;23.80;78.88;99371.03;5123969;27;20201;-65
2022/07/22 03:06:37;;;;;;;5.83;5.20;;;;;;;23.72;79.22;99354.28;5114601;27;20213;-65
2022/07/22 03:09:04;;;;;;;6.23;5.27;;;;;;;23.78;79.12;99375.56;5124935;27;20693;-65
2022/07/22 03:11:31;;;;;;;6.23;5.83;;;;;;;23.75;79.30;99378.44;5111801;28;20232;-65
2022/07/22 03:13:58;;;;;;;7.57;5.77;;;;;;;23.73;80.04;99376.91;5111647;28;20214;-65
2022/07/22 03:16:24;;;;;;;6.40;5.90;;;;;;;23.70;80.37;99385.84;5111395;28;20203;-65
2022/07/22 03:18:51;;;;;;;6.03;5.73;;;;;;;23.68;80.49;99381.72;5112751;28;20194;-65
2022/07/22 03:21:19;;;;;;;6.70;6.07;;;;;;;23.65;80.26;99377.53;5111998;28;20590;-65
2022/07/22 03:23:46;;;;;;;11.03;6.47;;;;;;;23.63;80.61;99379.47;5111830;28;20199;-65
2022/07/22 03:26:13;;;;;;;5.90;5.60;;;;;;;23.57;80.98;99382.59;5116059;27;20546;-65
2022/07/22 03:28:40;;;;;;;6.60;6.00;;;;;;;23.60;80.47;99389.38;5122826;27;20205;-65
2022/07/22 03:31:07;;;;;;;6.67;6.07;;;;;;;23.57;80.19;99387.84;5119235;27;20211;-65
2022/07/22 03:33:34;;;;;;;6.07;5.63;;;;;;;23.56;79.38;99394.03;5116509;27;20215;-65
2022/07/22 03:36:00;;;;;;;5.60;5.30;;;;;;;23.55;78.03;99386.31;5111864;27;20209;-65
2022/07/22 03:38:29;;;;;;;6.93;6.47;;;;;;;23.53;78.05;99391.66;5121415;27;20202;-65
2022/07/22 03:40:56;;;;;;;6.87;6.37;;;;;;;23.55;77.68;99392.38;5111832;28;20198;-65
2022/07/22 03:43:22;;;;;;;6.23;5.93;;;;;;;23.59;77.37;99393.75;5127414;27;20193;-65
2022/07/22 03:45:49;;;;;;;8.73;7.57;;;;;;;23.58;76.95;99397.38;5131762;27;20590;-65
2022/07/22 03:48:16;;;;;;;5.80;5.30;;;;;;;23.59;77.25;99399.00;5131832;27;20674;-65
2022/07/22 03:50:43;;;;;;;6.57;6.07;;;;;;;23.57;77.83;99406.16;5127126;27;20198;-65
2022/07/22 03:53:10;;;;;;;6.50;6.10;;;;;;;23.55;77.88;99400.25;5113150;27;20231;-65
2022/07/22 03:55:38;;;;;;;8.67;6.60;;;;;;;23.58;78.25;99397.38;5127589;27;20194;-65
2022/07/22 03:58:05;;;;;;;7.27;6.63;;;;;;;23.54;78.09;99401.19;5131860;27;20208;-65
2022/07/22 04:00:32;;;;;;;6.90;6.40;;;;;;;23.49;78.20;99392.88;5132010;27;20202;-65
2022/07/22 04:02:59;;;;;;;7.67;7.07;;;;;;;23.59;77.48;99403.44;5130101;27;20654;-65
2022/07/22 04:05:25;;;;;;;7.13;6.63;;;;;;;23.67;76.36;99406.22;5131864;27;20242;-65
2022/07/22 04:07:54;;;;;;;8.77;6.17;;;;;;;23.67;76.12;99396.59;5131766;27;20693;-65
2022/07/22 04:10:21;;;;;;;7.20;6.60;;;;;;;23.80;75.87;99407.69;5125743;27;20203;-65
2022/07/22 04:12:49;;;;;;;7.70;6.97;;;;;;;23.92;75.76;99405.81;5131448;27;20305;-65
2022/07/22 04:15:19;;;;;;;8.00;7.30;;;;;;;24.09;75.68;99407.00;5119604;27;20247;-66
2022/07/22 04:17:46;;;;;;;10.13;9.20;;;;;;;24.14;75.63;99397.81;5111222;28;20234;-65
2022/07/22 04:20:13;;;;;;;14.63;9.53;;;;;;;24.40;75.16;99408.66;5122205;28;20202;-65
2022/07/22 04:22:40;;;;;;;10.67;9.67;;;;;;;24.51;74.61;99398.06;5131939;28;20221;-65
2022/07/22 04:25:07;;;;;;;11.80;10.80;;;;;;;24.74;73.79;99412.63;5130895;28;20577;-65
2022/07/22 04:27:34;;;;;;;10.67;8.33;;;;;;;24.91;74.35;99414.59;5123190;27;20598;-66
2022/07/22 04:30:03;;;;;;;8.57;7.67;;;;;;;25.07;74.30;99409.63;5120618;27;20202;-66
2022/07/22 04:32:30;;;;;;;8.00;7.17;;;;;;;25.25;74.09;99419.44;5110750;28;20602;-65
2022/07/22 04:34:56;;;;;;;7.63;6.97;;;;;;;25.33;72.90;99412.53;5114194;28;20200;-66
2022/07/22 04:37:23;;;;;;;9.07;8.27;;;;;;;25.50;70.92;99416.28;5127716;27;20729;-66
2022/07/22 04:39:50;;;;;;;8.33;7.63;;;;;;;25.67;71.00;99412.09;5126942;28;20198;-66
2022/07/22 04:42:17;;;;;;;8.23;7.27;;;;;;;25.85;70.86;99421.72;5117109;27;20210;-66
2022/07/22 04:44:44;;;;;;;7.20;6.47;;;;;;;26.00;69.99;99422.94;5113323;27;20214;-66
2022/07/22 04:47:12;;;;;;;7.77;7.27;;;;;;;26.20;69.46;99426.38;5130062;27;20209;-66
2022/07/22 04:49:39;;;;;;;9.57;8.70;;;;;;;26.36;69.37;99433.63;5130273;28;20202;-66
2022/07/22 04:52:06;;;;;;;13.50;8.97;;;;;;;26.48;68.40;99433.28;5124574;28;20253;-66
2022/07/22 04:54:33;;;;;;;17.00;11.40;;;;;;;26.66;68.22;99432.50;5115719;28;20585;-66
2022/07/22 04:57:00;;;;;;;28.63;15.70;;;;;;;26.78;67.61;99434.78;5117737;28;20228;-66
2022/07/22 04:59:27;;;;;;;90.53;34.93;;;;;;;26.91;66.51;99429.19;5124543;27;20587;-66
2022/07/22 05:01:54;;;;;;;93.17;37.10;;;;;;;27.11;66.33;99423.63;5123983;27;20202;-66
2022/07/22 05:04:22;;;;;;;74.43;32.77;;;;;;;27.28;66.67;99424.59;5114635;28;20674;-66
2022/07/22 05:06:49;;;;;;;50.90;25.17;;;;;;;27.38;64.54;99425.34;5112986;28;20225;-66
2022/07/22 05:09:16;;;;;;;78.10;34.10;;;;;;;27.47;64.38;99415.72;5121267;28;20206;-66
2022/07/22 05:11:42;;;;;;;24.17;13.50;;;;;;;27.55;64.86;99416.63;5120203;28;20208;-66
2022/07/22 05:14:09;;;;;;;8.47;7.77;;;;;;;27.71;64.50;99417.72;5129381;28;20229;-65
2022/07/22 05:16:37;;;;;;;8.07;7.30;;;;;;;27.79;63.70;99417.78;5121808;28;20261;-65
2022/07/22 05:19:04;;;;;;;7.13;6.43;;;;;;;27.81;64.61;99419.28;5110768;28;20259;-65
2022/07/22 05:21:32;;;;;;;8.37;7.60;;;;;;;27.86;63.55;99414.34;5120004;27;20247;-65
2022/07/22 05:23:59;;;;;;;6.63;6.23;;;;;;;28.01;63.27;99422.53;5119359;27;20205;-65
2022/07/22 05:26:28;;;;;;;6.77;6.27;;;;;;;28.19;63.35;99425.09;5120448;27;20681;-65
2022/07/22 05:28:55;;;;;;;7.23;6.43;;;;;;;28.28;62.71;99421.53;5118308;27;20647;-65
2022/07/22 05:31:22;;;;;;;6.40;5.83;;;;;;;28.17;62.96;99425.28;5131487;27;20208;-65
2022/07/22 05:33:49;;;;;;;6.27;5.87;;;;;;;28.36;61.76;99424.22;5131853;27;20246;-65
2022/07/22 05:36:16;;;;;;;6.80;6.20;;;;;;;28.56;61.37;99422.97;5124644;27;20670;-65
2022/07/22 05:38:44;;;;;;;8.63;7.97;;;;;;;28.42;61.64;99418.28;5129764;27;20586;-66
2022/07/22 05:41:11;;;;;;;7.87;7.07;;;;;;;28.55;62.02;99424.78;5118125;27;20203;-65
2022/07/22 05:43:38;;;;;;;8.07;7.47;;;;;;;28.76;61.35;99419.06;5125415;27;20198;-65
2022/07/22 05:46:07;;;;;;;8.07;7.57;;;;;;;28.89;59.69;99421.25;5119770;27;20678;-66
2022/07/22 05:48:34;;;;;;;8.40;7.80;;;;;;;28.88;61.18;99414.34;5115809;27;20730;-65
2022/07/22 05:51:01;;;;;;;8.80;7.90;;;;;;;29.12;60.71;99419.63;5128180;27;20598;-65
2022/07/22 05:53:27;;;;;;;8.82;7.70;;;;;;;29.38;58.75;99417.72;5113809;27;20222;-65
2022/07/22 05:55:57;;;;;;;8.07;7.38;;;;;;;29.50;58.71;99420.84;5127395;27;20198;-65
2022/07/22 05:58:24;;;;;;;7.75;7.07;;;;;;;29.52;58.76;99424.16;5132678;27;20204;-66
2022/07/22 06:00:51;;;;;;;7.70;7.10;;;;;;;29.72;57.68;99421.97;5130731;27;20206;-65
2022/07/22 06:03:17;;;;;;;8.25;7.55;;;;;;;29.91;56.93;99419.81;5122567;27;20742;-65
2022/07/22 06:05:44;;;;;;;7.85;7.18;;;;;;;30.11;56.62;99421.06;5123690;27;20202;-65
2022/07/22 06:08:11;;;;;;;6.32;5.88;;;;;;;30.33;56.39;99418.69;5115398;27;20207;-65
2022/07/22 06:10:38;;;;;;;7.05;6.53;;;;;;;30.60;55.33;99418.25;5121911;27;20194;-66
2022/07/22 06:13:07;;;;;;;6.63;6.03;;;;;;;30.88;53.32;99414.13;5131692;27;20213;-66
2022/07/22 06:15:33;;;;;;;6.50;5.85;;;;;;;31.14;53.91;99421.78;5129701;27;20210;-66
2022/07/22 06:18:00;;;;;;;7.25;6.55;;;;;;;31.23;53.50;99418.06;5130418;27;20201;-66
2022/07/22 06:20:27;;;;;;;9.80;6.35;;;;;;;31.51;52.60;99407.72;5132132;27;20213;-66
2022/07/22 06:22:54;;;;;;;6.68;6.13;;;;;;;31.67;51.20;99412.88;5126252;27;20201;-66
2022/07/22 06:25:21;;;;;;;5.93;5.53;;;;;;;31.91;50.53;99417.13;5118828;27;20658;-66
2022/07/22 06:27:48;;;;;;;6.80;6.25;;;;;;;32.17;50.95;99413.06;5132241;27;20219;-66
2022/07/22 06:30:16;;;;;;;7.43;6.72;;;;;;;32.49;50.61;99403.03;5131083;27;20209;-66
2022/07/22 06:32:43;;;;;;;6.15;5.50;;;;;;;32.75;49.50;99409.50;5131914;27;20210;-66
2022/07/22 06:35:10;;;;;;;5.93;5.47;;;;;;;33.02;49.25;99413.22;5125628;27;20214;-66
2022/07/22 06:37:37;;;;;;;6.00;5.50;;;;;;;33.21;45.89;99415.31;5130016;27;20201;-65
2022/07/22 06:40:05;;;;;;;5.70;5.40;;;;;;;33.22;46.79;99413.44;5130001;27;20586;-66
2022/07/22 06:42:31;;;;;;;5.18;4.97;;;;;;;33.23;46.05;99420.41;5126983;27;20214;-66
2022/07/22 06:44:58;;;;;;;5.60;5.32;;;;;;;33.43;46.41;99417.94;5127550;27;20194;-66
2022/07/22 06:47:26;;;;;;;5.45;5.05;;;;;;;33.61;45.33;99418.28;5124370;27;20198;-66
2022/07/22 06:49:53;;;;;;;5.15;4.60;;;;;;;33.75;44.17;99410.22;5129384;27;20720;-66
2022/07/22 06:52:20;;;;;;;7.68;4.97;;;;;;;33.75;41.18;99410.22;5121046;27;20236;-66
2022/07/22 06:54:47;;;;;;;5.50;5.00;;;;;;;33.77;40.99;99408.19;5132447;27;20213;-66
2022/07/22 06:57:14;;;;;;;6.00;5.60;;;;;;;33.93;43.19;99411.59;5116381;27;20197;-66
2022/07/22 06:59:41;;;;;;;10.48;4.70;;;;;;;34.09;41.47;99411.25;5127283;27;20229;-66
2022/07/22 07:02:08;;;;;;;5.57;5.10;;;;;;;34.26;41.20;99408.09;5123764;27;20213;-66
2022/07/22 07:04:36;;;;;;;5.35;4.95;;;;;;;34.19;43.18;99407.22;5114855;27;20194;-66
2022/07/22 07:07:03;;;;;;;6.00;5.70;;;;;;;34.35;40.94;99414.06;5131332;27;20584;-66
2022/07/22 07:09:30;;;;;;;8.95;5.22;;;;;;;34.38;39.17;99415.53;5127809;27;20202;-66
2022/07/22 07:11:57;;;;;;;5.50;5.00;;;;;;;34.41;39.10;99407.16;5131513;27;20206;-66
2022/07/22 07:14:24;;;;;;;4.72;4.53;;;;;;;34.33;39.37;99407.28;5131444;27;20221;-66
2022/07/22 07:16:50;;;;;;;6.55;6.10;;;;;;;34.42;38.55;99408.75;5126671;27;20662;-66
2022/07/22 07:19:19;;;;;;;5.65;5.35;;;;;;;34.44;40.08;99398.75;5121652;27;20212;-66
2022/07/22 07:21:47;;;;;;;6.25;5.38;;;;;;;34.49;38.61;99406.94;5125701;27;20201;-66
2022/07/22 07:24:14;;;;;;;5.05;4.85;;;;;;;34.63;38.63;99408.69;5123718;27;20293;-66
2022/07/22 07:26:41;;;;;;;5.60;5.20;;;;;;;34.83;40.55;99409.56;5118439;27;20202;-66
2022/07/22 07:29:08;;;;;;;8.13;6.05;;;;;;;34.85;39.64;99402.19;5124442;27;20203;-66
2022/07/22 07:31:35;;;;;;;5.70;5.30;;;;;;;35.01;39.34;99407.13;5111728;27;20210;-66
2022/07/22 07:34:02;;;;;;;5.85;5.43;;;;;;;35.08;38.26;99407.97;5131216;27;20769;-66
2022/07/22 07:36:29;;;;;;;5.10;4.90;;;;;;;35.21;41.82;99412.50;5130072;27;20193;-66
2022/07/22 07:38:57;;;;;;;5.50;5.07;;;;;;;35.49;41.09;99409.63;5120248;27;20288;-66
2022/07/22 07:41:24;;;;;;;5.97;5.35;;;;;;;35.63;40.27;99408.63;5126142;27;20205;-66
2022/07/22 07:43:51;;;;;;;6.35;5.47;;;;;;;35.83;38.20;99418.22;5128618;27;20194;-66
2022/07/22 07:46:18;;;;;;;6.85;6.03;;;;;;;35.83;36.62;99422.78;5130146;27;20666;-66
2022/07/22 07:48:45;;;;;;;7.20;5.80;;;;;;;35.76;39.30;99412.13;5129126;27;20684;-66
2022/07/22 07:51:12;;;;;;;6.13;5.68;;;;;;;35.92;37.23;99415.34;5131124;27;20198;-66
2022/07/22 07:53:39;;;;;;;7.28;6.75;;;;;;;35.86;37.48;99410.84;5129622;27;20229;-66
2022/07/22 07:56:07;;;;;;;7.32;6.70;;;;;;;35.96;37.24;99417.41;5123994;27;20231;-66
2022/07/22 07:58:34;;;;;;;6.95;6.35;;;;;;;36.01;37.92;99408.75;5131021;27;20208;-66
2022/07/22 08:01:01;;;;;;;6.72;6.32;;;;;;;35.92;36.92;99410.84;5127869;27;20581;-72
2022/07/22 08:03:28;;;;;;;8.37;7.67;;;;;;;35.68;36.85;99414.97;5112853;27;20453;-61
2022/07/22 08:05:55;;;;;;;7.93;7.05;;;;;;;36.01;35.56;99414.91;5117988;27;21038;-62
2022/07/22 08:08:21;;;;;;;7.22;6.72;;;;;;;35.86;35.42;99418.88;5114409;27;20198;-61
2022/07/22 08:10:48;;;;;;;8.35;7.65;;;;;;;35.74;37.07;99408.81;5118884;27;20201;-62
2022/07/22 08:13:17;;;;;;;7.80;7.20;;;;;;;35.95;35.95;99410.44;5127511;27;20209;-62
2022/07/22 08:15:44;;;;;;;7.72;7.18;;;;;;;36.10;35.83;99405.69;5111837;27;20228;-62
2022/07/22 08:18:11;;;;;;;8.10;7.40;;;;;;;36.29;38.69;99407.47;5125506;27;20198;-61
2022/07/22 08:20:38;;;;;;;8.80;7.60;;;;;;;36.20;35.77;99408.72;5118325;27;20654;-62
2022/07/22 08:23:04;;;;;;;7.22;6.85;;;;;;;35.90;35.12;99407.53;5119623;27;20215;-62
2022/07/22 08:25:31;;;;;;;8.82;8.02;;;;;;;36.12;35.80;99402.81;5125203;27;20271;-62
2022/07/22 08:27:58;;;;;;;9.45;8.52;;;;;;;36.00;35.59;99399.09;5121053;28;20206;-62
2022/07/22 08:30:28;;;;;;;8.48;7.88;;;;;;;36.07;35.81;99399.94;5118377;28;20205;-62
2022/07/22 08:32:55;;;;;;;13.27;8.90;;;;;;;35.99;37.00;99398.31;5120171;28;20194;-62
2022/07/22 08:35:22;;;;;;;9.20;8.27;;;;;;;36.08;36.67;99405.09;5129391;28;20213;-62
2022/07/22 08:37:49;;;;;;;9.02;8.13;;;;;;;36.20;33.57;99402.56;5117669;28;20194;-62
2022/07/22 08:40:18;;;;;;;10.40;8.70;;;;;;;36.09;34.34;99403.25;5130866;28;20228;-61
2022/07/22 08:42:46;;;;;;;8.65;8.00;;;;;;;35.91;35.69;99387.84;5131816;28;20672;-61
2022/07/22 08:45:13;;;;;;;9.98;9.07;;;;;;;36.04;36.04;99398.50;5131342;28;20208;-62
2022/07/22 08:47:45;;;;;;;9.55;8.85;;;;;;;36.00;36.52;99402.59;5131395;28;20198;-62
2022/07/22 08:50:12;;;;;;;9.25;8.68;;;;;;;36.25;36.21;99406.22;5131323;28;20573;-62
2022/07/22 08:52:39;;;;;;;9.98;8.07;;;;;;;36.39;37.94;99404.34;5131276;28;20225;-62
2022/07/22 08:55:08;;;;;;;9.95;9.10;;;;;;;36.50;37.10;99408.19;5131310;28;20224;-62
2022/07/22 08:57:36;;;;;;;10.20;9.38;;;;;;;36.73;34.82;99409.34;5131496;28;20650;-62
2022/07/22 09:00:09;;;;;;;11.45;10.52;;;;;;;36.95;33.93;99412.50;5133758;27;20198;-62
2022/07/22 09:02:39;;;;;;;10.55;9.52;;;;;;;37.13;32.94;99409.09;5135009;27;20193;-62
2022/07/22 09:05:09;;;;;;;15.43;10.57;;;;;;;37.03;32.52;99404.22;5135204;27;20194;-62
2022/07/22 09:07:38;;;;;;;11.27;10.15;;;;;;;37.08;34.56;99403.59;5135022;27;20276;-62
2022/07/22 09:10:07;;;;;;;12.50;11.40;;;;;;;36.91;34.35;99405.13;5135292;27;20206;-61
2022/07/22 09:12:34;;;;;;;12.82;11.52;;;;;;;36.92;36.29;99394.22;5135104;27;20194;-62
2022/07/22 09:15:04;;;;;;;11.25;10.20;;;;;;;37.05;34.75;99410.19;5134219;27;20217;-61
2022/07/22 09:17:35;;;;;;;11.07;10.10;;;;;;;37.16;34.75;99403.34;5124527;27;20598;-61
2022/07/22 09:20:04;;;;;;;11.88;10.95;;;;;;;37.18;35.70;99411.97;5135037;27;20195;-62
2022/07/22 09:22:41;;;;;;;17.65;10.93;;;;;;;37.16;34.45;99406.03;5134855;27;20193;-62
2022/07/22 09:25:27;;;;;;;9.88;9.38;;;;;;;37.25;36.34;99402.88;5134884;27;20254;-61
2022/07/22 09:27:57;;;;;;;10.77;9.90;;;;;;;37.28;33.83;99405.09;5134976;27;20233;-61
2022/07/22 09:30:25;;;;;;;13.02;11.68;;;;;;;37.19;34.38;99398.34;5134795;27;20205;-62
2022/07/22 09:32:56;;;;;;;12.57;11.35;;;;;;;37.04;33.96;99394.38;5135219;27;20562;-61
2022/07/22 09:35:24;;;;;;;10.70;9.80;;;;;;;37.02;34.39;99391.94;5134593;27;20210;-62
2022/07/22 09:37:55;;;;;;;10.52;9.65;;;;;;;37.24;35.24;99395.03;5134708;27;20689;-62
2022/07/22 09:40:24;;;;;;;12.85;10.85;;;;;;;37.23;35.10;99383.53;5134801;27;20217;-61
2022/07/22 09:42:54;;;;;;;10.70;9.80;;;;;;;37.46;34.83;99403.53;5134585;27;20190;-61
2022/07/22 09:45:22;;;;;;;11.68;9.63;;;;;;;37.39;35.24;99394.69;5134996;27;20698;-62
2022/07/22 09:47:50;;;;;;;14.73;9.80;;;;;;;37.47;34.79;99397.16;5130236;27;20693;-61
2022/07/22 09:50:19;;;;;;;10.02;9.18;;;;;;;37.55;34.27;99396.84;5114165;28;20199;-62
2022/07/22 09:52:48;;;;;;;10.38;9.52;;;;;;;37.54;35.51;99373.84;5113509;28;20706;-61
2022/07/22 09:55:19;;;;;;;10.57;9.52;;;;;;;37.61;35.82;99385.28;5113739;28;20210;-62
2022/07/22 09:57:46;;;;;;;10.82;9.95;;;;;;;37.64;34.96;99391.03;5113627;28;20207;-62
2022/07/22 10:00:14;;;;;;;9.52;8.73;;;;;;;37.67;34.25;99395.09;5114062;28;20691;-61
2022/07/22 10:02:47;;;;;;;9.27;8.02;;;;;;;37.62;34.24;99386.91;5113560;28;20199;-62
2022/07/22 10:05:15;;;;;;;7.95;7.35;;;;;;;37.14;32.58;99387.50;5126103;27;20569;-62
2022/07/22 10:07:44;;;;;;;7.25;6.75;;;;;;;37.04;33.12;99383.69;5132342;27;20284;-61
2022/07/22 10:10:13;;;;;;;7.82;7.32;;;;;;;37.01;33.31;99374.25;5114642;27;20815;-62
2022/07/22 10:12:41;;;;;;;8.48;7.97;;;;;;;37.16;34.99;99372.06;5117653;27;20202;-62
2022/07/22 10:15:10;;;;;;;8.20;7.70;;;;;;;37.26;34.78;99376.91;5131189;27;20221;-63
2022/07/22 10:17:39;;;;;;;7.53;6.88;;;;;;;37.54;35.23;99374.66;5115820;27;20633;-62
2022/07/22 10:20:07;;;;;;;7.07;6.47;;;;;;;37.62;33.79;99368.19;5113223;28;20202;-62
2022/07/22 10:22:52;;;;;;;7.18;6.60;;;;;;;37.75;36.78;99368.88;5113036;28;20209;-62
2022/07/22 10:25:20;;;;;;;6.80;6.30;;;;;;;37.66;32.31;99370.19;5113599;28;20195;-62
2022/07/22 10:27:51;;;;;;;6.22;5.75;;;;;;;37.64;32.41;99358.09;5113131;28;20191;-62
2022/07/22 10:30:20;;;;;;;6.00;5.70;;;;;;;37.94;32.93;99366.22;5113489;28;20548;-62
2022/07/22 10:33:02;;;;;;;6.28;5.88;;;;;;;37.80;33.92;99357.50;5113047;28;20195;-62
2022/07/22 10:35:29;;;;;;;7.55;6.15;;;;;;;37.86;33.79;99345.91;5113452;27;20331;-62
2022/07/22 10:37:59;;;;;;;5.80;5.47;;;;;;;37.99;32.62;99356.50;5112878;28;20209;-61
2022/07/22 10:40:28;;;;;;;5.85;5.55;;;;;;;37.63;31.58;99351.09;5113030;28;20209;-61
2022/07/22 10:43:10;;;;;;;5.47;5.07;;;;;;;37.52;31.27;99346.47;5112751;27;20202;-61
2022/07/22 10:45:40;;;;;;;4.95;4.63;;;;;;;37.31;31.86;99347.69;5112923;28;20190;-61
2022/07/22 10:48:10;;;;;;;5.15;4.93;;;;;;;36.88;31.45;99352.91;5112777;28;20197;-63
2022/07/22 10:50:45;;;;;;;6.10;5.57;;;;;;;36.79;33.21;99340.88;5112630;28;20194;-62
2022/07/22 10:53:14;;;;;;;5.63;5.18;;;;;;;37.03;33.50;99345.44;5112295;27;20214;-61
2022/07/22 10:56:04;;;;;;;5.70;5.30;;;;;;;37.19;32.72;99339.53;5112799;28;20686;-61
2022/07/22 10:58:53;;;;;;;5.60;5.32;;;;;;;37.41;33.05;99345.31;5112399;28;20199;-60
2022/07/22 11:01:23;;;;;;;4.55;4.25;;;;;;;37.25;30.74;99335.19;5132247;27;20190;-62
2022/07/22 11:03:50;;;;;;;4.57;4.28;;;;;;;37.12;31.06;99332.63;5133194;27;20678;-62
2022/07/22 11:06:23;;;;;;;4.97;4.78;;;;;;;36.95;30.80;99336.84;5112238;28;20191;-61
2022/07/22 11:08:52;;;;;;;5.90;5.53;;;;;;;36.79;31.76;99331.00;5119691;27;20201;-61
2022/07/22 11:11:19;;;;;;;6.93;6.47;;;;;;;36.78;32.70;99329.34;5115234;27;20201;-61
2022/07/22 11:13:48;;;;;;;5.70;5.40;;;;;;;36.78;32.90;99331.19;5118748;27;20199;-61
2022/07/22 11:16:16;;;;;;;6.10;5.68;;;;;;;36.96;32.64;99328.63;5112638;27;20218;-61
2022/07/22 11:18:52;;;;;;;5.60;5.30;;;;;;;36.90;32.16;99339.34;5112067;28;20199;-61
2022/07/22 11:21:21;;;;;;;5.63;5.22;;;;;;;36.89;32.43;99330.50;5111826;28;20202;-61
2022/07/22 11:23:49;;;;;;;7.10;6.38;;;;;;;37.03;33.69;99331.28;5112109;27;20198;-61
2022/07/22 11:26:18;;;;;;;5.72;5.43;;;;;;;37.03;32.16;99324.03;5112217;28;20199;-61
2022/07/22 11:28:47;;;;;;;5.55;4.75;;;;;;;37.18;32.49;99323.72;5111923;28;20203;-61
2022/07/22 11:31:18;;;;;;;3.90;3.60;;;;;;;36.91;30.15;99320.41;5130347;27;20202;-61
2022/07/22 11:33:45;;;;;;;5.40;4.43;;;;;;;36.98;31.36;99321.19;5132545;27;20198;-61
2022/07/22 11:36:12;;;;;;;4.40;4.20;;;;;;;37.05;30.16;99324.66;5132428;27;20221;-62